Caribbean Ferry — WDD3415 — position and weather

sailwx.info

Track history (hours):
 
Tides and Currents Weather Stations Pressure Air Temp Water Temp Dewpoint Dewpoint Depression Visibility Wind Speed Wind Dir Waves Ship Positions

Caribbean Ferry

Owner: Cross Sound Ferry Services,Inc., New London, CT. More information available from US FCC via Universal Licensing System and Coast Guard Vessel Documentation Center.

Last reported at 2015-Jul-03 15:33 UTC. Time now 2015-Jul-03 15:37 UTC.
Position N 41°16' W 072°07'.

Length 36 m.

Type: Passenger vessel. MMSI: 367130960.

Date/timePositionNaut miles runAvg speedWind from/ knotsBaromVisibWave heightAir tempDewpointWater temp
2015-Jul-03 15:33N 41°16' W 072°07'9 8.9
2015-Jul-03 14:33N 41°09' W 072°14'3 2.6
2015-Jul-03 13:33N 41°12' W 072°14'1111.5
2015-Jul-03 12:33N 41°21' W 072°05'0 0.0
2015-Jul-03 01:04N 41°21' W 072°06'4 7.3
2015-Jul-03 00:33N 41°18' W 072°06'1010.2
2015-Jul-02 23:33N 41°09' W 072°14'2 2.4
2015-Jul-02 22:33N 41°12' W 072°13'1110.9
2015-Jul-02 21:33N 41°21' W 072°05'4 3.9
2015-Jul-02 20:33N 41°17' W 072°05'1010.4
2015-Jul-02 19:33N 41°09' W 072°14'5 4.5
2015-Jul-02 18:33N 41°13' W 072°11'9 9.4
2015-Jul-02 17:33N 41°21' W 072°06'4 3.8
2015-Jul-02 16:33N 41°18' W 072°05'1110.8
2015-Jul-02 15:33N 41°09' W 072°14'3 3.4
2015-Jul-02 14:33N 41°12' W 072°12'1010.5
2015-Jul-02 13:33N 41°21' W 072°06'  
2015-Jun-29 00:33N 41°19' W 072°05'1111.1
2015-Jun-28 23:33N 41°10' W 072°13'0 0.4
2015-Jun-28 22:33N 41°10' W 072°13'1211.9
2015-Jun-28 21:33N 41°20' W 072°05'3 2.5
2015-Jun-28 20:33N 41°18' W 072°05'1110.7
2015-Jun-28 19:34N 41°09' W 072°14'2 1.8
2015-Jun-28 18:33N 41°11' W 072°13'1111.4
2015-Jun-28 17:33N 41°21' W 072°05'2 1.6
2015-Jun-28 16:33N 41°19' W 072°05'1211.7
2015-Jun-28 15:34N 41°09' W 072°14'3 2.5
2015-Jun-28 14:33N 41°12' W 072°12'1111.0
2015-Jun-28 13:33N 41°21' W 072°05'0 0.2
2015-Jun-28 12:33N 41°21' W 072°06'0 0.0
2015-Jun-27 20:23N 41°21' W 072°06'4 4.7
2015-Jun-27 19:33N 41°18' W 072°05'1010.4
2015-Jun-27 18:34N 41°09' W 072°14'3 2.9
2015-Jun-27 17:33N 41°12' W 072°12'1110.5
2015-Jun-27 16:33N 41°21' W 072°06'4 4.0
2015-Jun-27 15:33N 41°17' W 072°05'1110.8
2015-Jun-27 14:34N 41°09' W 072°14'3 3.2
2015-Jun-27 13:33N 41°12' W 072°12'1110.5
2015-Jun-27 12:33N 41°21' W 072°05'3 0.2
2015-Jun-27 00:34N 41°19' W 072°05'1211.7
2015-Jun-26 23:34N 41°09' W 072°14'2 2.3
2015-Jun-26 22:34N 41°11' W 072°13'1111.5
2015-Jun-26 21:34N 41°21' W 072°05'4 3.7
2015-Jun-26 20:33N 41°17' W 072°06'1110.5
2015-Jun-26 19:33N 41°09' W 072°14'4 4.0
2015-Jun-26 18:33N 41°13' W 072°12'10 9.8
2015-Jun-26 17:33N 41°21' W 072°06'4 3.8
2015-Jun-26 16:33N 41°18' W 072°05'  
Track history (hours):
 
Tides and Currents Weather Stations Pressure Air Temp Water Temp Dewpoint Dewpoint Depression Visibility Wind Speed Wind Dir Waves Ship Positions

Caribbean Ferry

Owner: Cross Sound Ferry Services,Inc., New London, CT. More information available from US FCC via Universal Licensing System and Coast Guard Vessel Documentation Center.

Last reported at 2015-Jul-03 15:33 UTC. Time now 2015-Jul-03 15:37 UTC.
Position N 41°16' W 072°07'.

Length 36 m.

Type: Passenger vessel. MMSI: 367130960.

Date/timePositionNaut miles runAvg speedWind from/ knotsBaromVisibWave heightAir tempDewpointWater temp
2015-Jul-03 15:33N 41°16' W 072°07'9 8.9
2015-Jul-03 14:33N 41°09' W 072°14'3 2.6
2015-Jul-03 13:33N 41°12' W 072°14'1111.5
2015-Jul-03 12:33N 41°21' W 072°05'0 0.0
2015-Jul-03 01:04N 41°21' W 072°06'4 7.3
2015-Jul-03 00:33N 41°18' W 072°06'1010.2
2015-Jul-02 23:33N 41°09' W 072°14'2 2.4
2015-Jul-02 22:33N 41°12' W 072°13'1110.9
2015-Jul-02 21:33N 41°21' W 072°05'4 3.9
2015-Jul-02 20:33N 41°17' W 072°05'1010.4
2015-Jul-02 19:33N 41°09' W 072°14'5 4.5
2015-Jul-02 18:33N 41°13' W 072°11'9 9.4
2015-Jul-02 17:33N 41°21' W 072°06'4 3.8
2015-Jul-02 16:33N 41°18' W 072°05'1110.8
2015-Jul-02 15:33N 41°09' W 072°14'3 3.4
2015-Jul-02 14:33N 41°12' W 072°12'1010.5
2015-Jul-02 13:33N 41°21' W 072°06'  
2015-Jun-29 00:33N 41°19' W 072°05'1111.1
2015-Jun-28 23:33N 41°10' W 072°13'0 0.4
2015-Jun-28 22:33N 41°10' W 072°13'1211.9
2015-Jun-28 21:33N 41°20' W 072°05'3 2.5
2015-Jun-28 20:33N 41°18' W 072°05'1110.7
2015-Jun-28 19:34N 41°09' W 072°14'2 1.8
2015-Jun-28 18:33N 41°11' W 072°13'1111.4
2015-Jun-28 17:33N 41°21' W 072°05'2 1.6
2015-Jun-28 16:33N 41°19' W 072°05'1211.7
2015-Jun-28 15:34N 41°09' W 072°14'3 2.5
2015-Jun-28 14:33N 41°12' W 072°12'1111.0
2015-Jun-28 13:33N 41°21' W 072°05'0 0.2
2015-Jun-28 12:33N 41°21' W 072°06'0 0.0
2015-Jun-27 20:23N 41°21' W 072°06'4 4.7
2015-Jun-27 19:33N 41°18' W 072°05'1010.4
2015-Jun-27 18:34N 41°09' W 072°14'3 2.9
2015-Jun-27 17:33N 41°12' W 072°12'1110.5
2015-Jun-27 16:33N 41°21' W 072°06'4 4.0
2015-Jun-27 15:33N 41°17' W 072°05'1110.8
2015-Jun-27 14:34N 41°09' W 072°14'3 3.2
2015-Jun-27 13:33N 41°12' W 072°12'1110.5
2015-Jun-27 12:33N 41°21' W 072°05'3 0.2
2015-Jun-27 00:34N 41°19' W 072°05'1211.7
2015-Jun-26 23:34N 41°09' W 072°14'2 2.3
2015-Jun-26 22:34N 41°11' W 072°13'1111.5
2015-Jun-26 21:34N 41°21' W 072°05'4 3.7
2015-Jun-26 20:33N 41°17' W 072°06'1110.5
2015-Jun-26 19:33N 41°09' W 072°14'4 4.0
2015-Jun-26 18:33N 41°13' W 072°12'10 9.8
2015-Jun-26 17:33N 41°21' W 072°06'4 3.8
2015-Jun-26 16:33N 41°18' W 072°05'  

Dump ship's entire track history